createdAt,value
2024-03-10T00:00:31.552Z,21.83
2024-03-10T00:02:58.117Z,22.80
2024-03-10T00:05:25.042Z,20.88
2024-03-10T00:07:51.782Z,22.30
2024-03-10T00:10:19.206Z,24.83
2024-03-10T00:12:50.236Z,21.50
2024-03-10T00:15:17.893Z,20.55
2024-03-10T00:17:44.832Z,23.35
2024-03-10T00:20:12.175Z,20.90
2024-03-10T00:22:42.226Z,20.77
2024-03-10T00:25:09.701Z,21.27
2024-03-10T00:27:39.524Z,21.38
2024-03-10T00:30:07.205Z,24.42
2024-03-10T00:32:34.213Z,21.77
2024-03-10T00:35:02.657Z,20.67
2024-03-10T00:37:29.637Z,22.85
2024-03-10T00:39:56.166Z,21.67
2024-03-10T00:42:22.588Z,21.35
2024-03-10T00:44:49.099Z,23.15
2024-03-10T00:47:15.563Z,23.60
2024-03-10T00:49:42.204Z,19.58
2024-03-10T00:52:08.805Z,22.80
2024-03-10T00:54:35.508Z,22.67
2024-03-10T00:57:02.240Z,19.90
2024-03-10T00:59:28.752Z,21.40
2024-03-10T01:01:55.239Z,19.52
2024-03-10T01:04:21.879Z,21.98
2024-03-10T01:06:49.132Z,23.35
2024-03-10T01:09:19.619Z,22.55
2024-03-10T01:11:49.689Z,21.52
2024-03-10T01:14:16.263Z,24.55
2024-03-10T01:16:42.871Z,21.13
2024-03-10T01:19:12.614Z,22.70
2024-03-10T01:21:39.367Z,23.75
2024-03-10T01:24:08.150Z,21.90
2024-03-10T01:26:35.581Z,23.23
2024-03-10T01:29:02.744Z,20.65
2024-03-10T01:31:29.345Z,23.75
2024-03-10T01:33:55.819Z,24.05
2024-03-10T01:36:22.512Z,24.50
2024-03-10T01:38:49.020Z,25.88
2024-03-10T01:41:15.593Z,26.40
2024-03-10T01:43:42.152Z,23.95
2024-03-10T01:46:09.581Z,22.90
2024-03-10T01:48:38.508Z,24.58
2024-03-10T01:51:08.537Z,26.40
2024-03-10T01:53:38.265Z,26.27
2024-03-10T01:56:06.529Z,26.10
2024-03-10T01:58:33.962Z,25.02
2024-03-10T02:01:03.075Z,26.08
2024-03-10T02:03:30.744Z,24.08
2024-03-10T02:05:57.347Z,27.10
2024-03-10T02:08:24.638Z,25.50
2024-03-10T02:10:52.934Z,25.30
2024-03-10T02:13:20.034Z,24.00
2024-03-10T02:16:06.227Z,27.25
2024-03-10T02:18:36.285Z,26.15
2024-03-10T02:21:04.861Z,26.20
2024-03-10T02:23:41.417Z,27.40
2024-03-10T02:26:10.016Z,27.48
2024-03-10T02:28:47.522Z,25.38
2024-03-10T02:31:33.227Z,25.92
2024-03-10T02:34:18.198Z,27.60
2024-03-10T02:37:03.317Z,28.58
2024-03-10T02:39:48.205Z,27.27
2024-03-10T02:42:33.039Z,28.70
2024-03-10T02:45:17.757Z,27.83
2024-03-10T02:47:44.271Z,26.67
2024-03-10T02:50:11.513Z,27.65
2024-03-10T02:52:38.004Z,25.77
2024-03-10T02:55:05.054Z,29.98
2024-03-10T02:57:31.950Z,33.40
2024-03-10T02:59:58.797Z,26.98
2024-03-10T03:02:25.899Z,26.20
2024-03-10T03:04:52.672Z,27.77
2024-03-10T03:07:19.569Z,28.45
2024-03-10T03:09:46.923Z,27.85
2024-03-10T03:12:13.623Z,27.20
2024-03-10T03:14:41.194Z,26.23
2024-03-10T03:17:08.031Z,25.65
2024-03-10T03:19:34.927Z,28.05
2024-03-10T03:22:01.450Z,24.55
2024-03-10T03:24:28.204Z,26.08
2024-03-10T03:26:54.785Z,27.40
2024-03-10T03:29:21.710Z,28.80
2024-03-10T03:31:48.420Z,27.40
2024-03-10T03:34:14.901Z,26.00
2024-03-10T03:36:42.949Z,26.10
2024-03-10T03:39:12.606Z,23.85
2024-03-10T03:41:39.106Z,28.45
2024-03-10T03:44:05.889Z,27.10
2024-03-10T03:46:32.414Z,25.15
2024-03-10T03:48:58.888Z,29.38
2024-03-10T03:51:25.331Z,25.95
2024-03-10T03:53:51.853Z,26.83
2024-03-10T03:56:18.436Z,22.55
2024-03-10T03:58:44.940Z,27.75
2024-03-10T04:01:11.781Z,33.13
2024-03-10T04:03:38.315Z,25.85
2024-03-10T04:06:06.952Z,26.23
2024-03-10T04:08:33.659Z,28.33
2024-03-10T04:11:00.293Z,23.25
2024-03-10T04:13:26.840Z,21.90
2024-03-10T04:15:53.367Z,20.27
2024-03-10T04:18:19.853Z,25.98
2024-03-10T04:20:46.842Z,19.75
2024-03-10T04:23:13.350Z,27.05
2024-03-10T04:25:39.841Z,22.90
2024-03-10T04:28:06.477Z,26.13
2024-03-10T04:30:35.647Z,23.30
2024-03-10T04:33:02.245Z,21.77
2024-03-10T04:35:29.614Z,19.23
2024-03-10T04:37:56.133Z,27.10
2024-03-10T04:40:22.923Z,27.10
2024-03-10T04:42:49.717Z,23.52
2024-03-10T04:45:16.195Z,28.90
2024-03-10T04:47:42.737Z,19.30
2024-03-10T04:50:10.272Z,16.60
2024-03-10T04:52:37.129Z,27.65
2024-03-10T04:55:05.898Z,23.20
2024-03-10T04:57:34.183Z,26.15
2024-03-10T05:00:01.917Z,26.02
2024-03-10T05:02:28.610Z,23.23
2024-03-10T05:04:55.748Z,23.73
2024-03-10T05:07:22.399Z,13.95
2024-03-10T05:09:48.901Z,21.75
2024-03-10T05:12:15.737Z,24.50
2024-03-10T05:14:42.278Z,28.33
2024-03-10T05:17:08.777Z,27.45
2024-03-10T05:19:35.255Z,23.40
2024-03-10T05:22:01.877Z,22.73
2024-03-10T05:24:28.341Z,25.85
2024-03-10T05:26:54.834Z,21.85
2024-03-10T05:29:21.593Z,28.10
2024-03-10T05:31:48.199Z,27.98
2024-03-10T05:34:15.395Z,21.38
2024-03-10T05:36:41.967Z,28.60
2024-03-10T05:39:09.576Z,22.55
2024-03-10T05:41:36.496Z,29.83
2024-03-10T05:44:04.956Z,24.30
2024-03-10T05:46:31.564Z,27.85
2024-03-10T05:48:59.449Z,27.80
2024-03-10T05:51:26.014Z,27.23
2024-03-10T05:53:52.579Z,29.13
2024-03-10T05:56:19.761Z,28.17
2024-03-10T05:58:46.599Z,27.38
2024-03-10T06:01:13.596Z,21.75
2024-03-10T06:03:40.184Z,27.10
2024-03-10T06:06:08.275Z,26.23
2024-03-10T06:08:34.809Z,26.25
2024-03-10T06:11:02.428Z,26.92
2024-03-10T06:13:29.645Z,27.20
2024-03-10T06:15:56.209Z,26.08
2024-03-10T06:18:25.217Z,25.38
2024-03-10T06:21:10.981Z,25.42
2024-03-10T06:23:55.875Z,20.73
2024-03-10T06:26:22.909Z,29.23
2024-03-10T06:28:50.975Z,21.83
2024-03-10T06:31:18.827Z,22.08
2024-03-10T06:33:45.798Z,26.27
2024-03-10T06:36:15.128Z,26.40
2024-03-10T06:38:43.808Z,27.92
2024-03-10T06:41:11.120Z,19.33
2024-03-10T06:43:38.849Z,18.48
2024-03-10T06:46:05.559Z,29.17
2024-03-10T06:48:32.006Z,17.58
2024-03-10T06:50:58.440Z,19.88
2024-03-10T06:53:26.169Z,22.08
2024-03-10T06:55:57.422Z,15.82
2024-03-10T06:58:23.914Z,17.40
2024-03-10T07:00:50.460Z,22.33
2024-03-10T07:03:17.693Z,20.45
2024-03-10T07:05:44.193Z,22.65
2024-03-10T07:08:10.917Z,21.77
2024-03-10T07:10:37.720Z,21.30
2024-03-10T07:13:05.049Z,20.17
2024-03-10T07:15:32.034Z,20.52
2024-03-10T07:17:59.053Z,22.60
2024-03-10T07:20:26.057Z,22.13
2024-03-10T07:22:53.068Z,18.30
2024-03-10T07:25:19.879Z,20.50
2024-03-10T07:27:46.422Z,16.75
2024-03-10T07:30:13.901Z,18.20
2024-03-10T07:32:40.562Z,21.95
2024-03-10T07:35:10.330Z,20.92
2024-03-10T07:37:37.065Z,21.52
2024-03-10T07:40:08.252Z,19.00
2024-03-10T07:42:34.768Z,19.88
2024-03-10T07:45:01.213Z,17.48
2024-03-10T07:47:27.962Z,22.67
2024-03-10T07:49:54.484Z,17.73
2024-03-10T07:52:21.978Z,14.10
2024-03-10T07:54:48.400Z,17.63
2024-03-10T07:57:14.867Z,16.83
2024-03-10T07:59:41.301Z,22.92
2024-03-10T08:02:07.775Z,21.38
2024-03-10T08:04:34.493Z,20.80
2024-03-10T08:07:01.029Z,23.08
2024-03-10T08:09:27.793Z,26.92
2024-03-10T08:11:54.388Z,24.92
2024-03-10T08:14:22.370Z,20.30
2024-03-10T08:16:49.472Z,20.42
2024-03-10T08:19:16.112Z,22.27
2024-03-10T08:21:42.617Z,19.00
2024-03-10T08:24:10.895Z,24.25
2024-03-10T08:26:37.569Z,21.67
2024-03-10T08:29:04.080Z,21.70
2024-03-10T08:31:31.627Z,19.92
2024-03-10T08:33:58.115Z,19.70
2024-03-10T08:36:24.962Z,20.40
2024-03-10T08:38:52.175Z,17.23
2024-03-10T08:41:18.692Z,19.65
2024-03-10T08:43:45.351Z,20.15
2024-03-10T08:46:12.604Z,13.57
2024-03-10T08:48:39.037Z,22.95
2024-03-10T08:51:07.039Z,22.13
2024-03-10T08:53:34.661Z,16.75
2024-03-10T08:56:02.230Z,22.00
2024-03-10T08:58:29.468Z,21.38
2024-03-10T09:00:56.092Z,18.95
2024-03-10T09:03:23.662Z,21.65
2024-03-10T09:05:50.258Z,21.52
2024-03-10T09:08:16.749Z,20.52
2024-03-10T09:10:53.078Z,16.88
2024-03-10T09:13:25.053Z,18.08
2024-03-10T09:15:51.522Z,20.95
2024-03-10T09:18:18.786Z,20.50
2024-03-10T09:20:47.187Z,20.33
2024-03-10T09:23:14.293Z,18.08
2024-03-10T09:25:41.802Z,16.92
2024-03-10T09:28:08.394Z,20.23
2024-03-10T09:30:35.013Z,16.38
2024-03-10T09:33:01.862Z,20.23
2024-03-10T09:35:36.405Z,16.80
2024-03-10T09:38:06.105Z,20.27
2024-03-10T09:40:33.424Z,16.55
2024-03-10T09:43:06.019Z,19.90
2024-03-10T09:45:39.420Z,19.13
2024-03-10T09:48:10.850Z,19.75
2024-03-10T09:50:40.534Z,21.30
2024-03-10T09:53:09.452Z,15.27
2024-03-10T09:55:36.065Z,21.95
2024-03-10T09:58:11.550Z,19.23
2024-03-10T10:00:40.696Z,18.52
2024-03-10T10:03:10.383Z,17.20
2024-03-10T10:05:45.902Z,21.77
2024-03-10T10:08:13.706Z,20.23
2024-03-10T10:10:51.014Z,17.38
2024-03-10T10:13:24.724Z,15.77
2024-03-10T10:15:54.574Z,18.00
2024-03-10T10:18:22.486Z,14.82
2024-03-10T10:20:52.653Z,18.05
2024-03-10T10:23:24.718Z,13.82
2024-03-10T10:25:55.200Z,23.10
2024-03-10T10:28:21.681Z,22.65
2024-03-10T10:30:48.287Z,21.83
2024-03-10T10:33:15.562Z,20.08
2024-03-10T10:35:46.689Z,23.38
2024-03-10T10:38:14.414Z,13.20
2024-03-10T10:40:46.521Z,18.77
2024-03-10T10:43:13.734Z,14.13
2024-03-10T10:45:40.353Z,21.15
2024-03-10T10:48:09.990Z,15.25
2024-03-10T10:50:39.091Z,19.58
2024-03-10T10:53:07.857Z,19.20
2024-03-10T10:55:41.313Z,15.82
2024-03-10T10:58:12.925Z,16.77
2024-03-10T11:00:41.666Z,18.17
2024-03-10T11:03:18.798Z,21.50
2024-03-10T11:06:09.625Z,17.38
2024-03-10T11:08:38.072Z,14.05
2024-03-10T11:11:05.371Z,19.88
2024-03-10T11:13:33.270Z,18.17
2024-03-10T11:16:13.961Z,17.92
2024-03-10T11:18:40.817Z,21.42
2024-03-10T11:21:21.055Z,17.77
2024-03-10T11:23:49.870Z,18.92
2024-03-10T11:26:18.846Z,16.45
2024-03-10T11:28:50.556Z,18.00
2024-03-10T11:31:23.392Z,17.23
2024-03-10T11:34:09.020Z,18.50
2024-03-10T11:36:40.649Z,20.35
2024-03-10T11:39:08.664Z,15.10
2024-03-10T11:41:35.617Z,16.38
2024-03-10T11:44:02.406Z,17.40
2024-03-10T11:46:32.826Z,14.05
2024-03-10T11:48:59.852Z,20.20
2024-03-10T11:51:28.919Z,17.55
2024-03-10T11:53:56.311Z,18.95
2024-03-10T11:56:23.615Z,19.30
2024-03-10T11:58:52.979Z,17.88
2024-03-10T12:01:20.338Z,20.03
2024-03-10T12:03:48.743Z,20.75
2024-03-10T12:06:18.698Z,19.45
2024-03-10T12:08:45.920Z,18.77
2024-03-10T12:11:13.860Z,16.42
2024-03-10T12:13:44.642Z,19.73
2024-03-10T12:16:12.291Z,18.40
2024-03-10T12:18:42.261Z,23.35
2024-03-10T12:21:16.886Z,18.63
2024-03-10T12:23:44.200Z,20.92
2024-03-10T12:26:16.488Z,20.27
2024-03-10T12:28:44.728Z,19.13
2024-03-10T12:31:14.457Z,19.13
2024-03-10T12:33:43.672Z,21.48
2024-03-10T12:36:14.093Z,20.15
2024-03-10T12:38:41.930Z,21.43
2024-03-10T12:41:09.221Z,25.30
2024-03-10T12:43:37.886Z,20.60
2024-03-10T12:46:05.622Z,21.90
2024-03-10T12:48:34.927Z,22.35
2024-03-10T12:51:03.275Z,25.67
2024-03-10T12:53:29.757Z,22.10
2024-03-10T12:55:56.852Z,24.77
2024-03-10T12:58:23.671Z,21.83
2024-03-10T13:00:50.140Z,18.25
2024-03-10T13:03:16.702Z,24.57
2024-03-10T13:05:43.184Z,22.58
2024-03-10T13:08:10.783Z,23.83
2024-03-10T13:10:37.398Z,24.80
2024-03-10T13:13:08.696Z,26.88
2024-03-10T13:15:38.716Z,27.03
2024-03-10T13:18:08.612Z,16.50
2024-03-10T13:20:38.143Z,24.05
2024-03-10T13:23:06.646Z,22.98
2024-03-10T13:25:34.184Z,21.85
2024-03-10T13:28:01.510Z,22.77
2024-03-10T13:30:27.979Z,25.88
2024-03-10T13:32:54.617Z,23.33
2024-03-10T13:35:21.215Z,24.38
2024-03-10T13:37:48.056Z,29.52
2024-03-10T13:40:18.684Z,28.20
2024-03-10T13:42:48.720Z,24.92
2024-03-10T13:45:23.250Z,27.52
2024-03-10T13:47:59.945Z,26.58
2024-03-10T13:50:26.599Z,34.47
2024-03-10T13:52:53.267Z,25.37
2024-03-10T13:55:21.953Z,28.70
2024-03-10T13:57:49.329Z,30.83
2024-03-10T14:00:20.196Z,30.20
2024-03-10T14:02:46.865Z,30.00
2024-03-10T14:05:16.069Z,28.83
2024-03-10T14:07:44.030Z,25.40
2024-03-10T14:10:12.051Z,27.20
2024-03-10T14:12:39.489Z,27.08
2024-03-10T14:15:10.593Z,26.67
2024-03-10T14:17:42.134Z,24.73
2024-03-10T14:20:15.081Z,26.20
2024-03-10T14:22:46.185Z,23.77
2024-03-10T14:25:13.820Z,25.35
2024-03-10T14:27:49.081Z,27.17
2024-03-10T14:30:16.065Z,23.93
2024-03-10T14:32:42.834Z,28.60
2024-03-10T14:35:12.592Z,25.23
2024-03-10T14:37:44.861Z,27.25
2024-03-10T14:40:19.202Z,24.63
2024-03-10T14:42:47.501Z,30.27
2024-03-10T14:45:14.091Z,30.88
2024-03-10T14:47:40.771Z,28.45
2024-03-10T14:50:09.498Z,31.58
2024-03-10T14:52:36.210Z,25.00
2024-03-10T14:55:05.374Z,28.00
2024-03-10T14:57:32.463Z,28.20
2024-03-10T15:00:01.125Z,24.10
2024-03-10T15:02:28.417Z,23.60
2024-03-10T15:04:54.979Z,26.13
2024-03-10T15:07:23.460Z,24.40
2024-03-10T15:09:50.121Z,29.70
2024-03-10T15:12:17.554Z,27.17
2024-03-10T15:14:44.549Z,24.75
2024-03-10T15:17:13.819Z,30.85
2024-03-10T15:19:40.306Z,26.63
2024-03-10T15:22:08.128Z,26.27
2024-03-10T15:24:36.796Z,27.95
2024-03-10T15:27:07.761Z,26.10
2024-03-10T15:29:35.913Z,27.38
2024-03-10T15:32:03.852Z,27.83
2024-03-10T15:34:31.625Z,26.27
2024-03-10T15:37:00.388Z,26.02
2024-03-10T15:39:29.058Z,24.23
2024-03-10T15:41:56.875Z,26.85
2024-03-10T15:44:26.067Z,26.25
2024-03-10T15:46:53.181Z,26.35
2024-03-10T15:49:20.610Z,23.90
2024-03-10T15:51:47.213Z,28.02
2024-03-10T15:54:15.414Z,28.42
2024-03-10T15:56:42.093Z,20.08
2024-03-10T15:59:09.312Z,26.83
2024-03-10T16:01:35.985Z,27.98
2024-03-10T16:04:07.079Z,29.35
2024-03-10T16:06:33.610Z,23.25
2024-03-10T16:09:00.313Z,22.35
2024-03-10T16:11:27.594Z,24.17
2024-03-10T16:14:07.844Z,21.15
2024-03-10T16:16:34.726Z,26.00
2024-03-10T16:19:01.946Z,24.58
2024-03-10T16:21:37.350Z,27.57
2024-03-10T16:24:09.046Z,18.98
2024-03-10T16:26:35.660Z,27.02
2024-03-10T16:29:03.049Z,23.58
2024-03-10T16:31:30.911Z,26.35
2024-03-10T16:33:58.053Z,27.13
2024-03-10T16:36:24.518Z,26.67
2024-03-10T16:38:50.990Z,26.08
2024-03-10T16:41:17.479Z,27.27
2024-03-10T16:43:45.064Z,25.80
2024-03-10T16:46:13.680Z,25.47
2024-03-10T16:48:40.656Z,26.80
2024-03-10T16:51:10.280Z,23.48
2024-03-10T16:53:37.341Z,24.90
2024-03-10T16:56:04.229Z,27.55
2024-03-10T16:58:31.075Z,25.10
2024-03-10T17:01:00.408Z,24.90
2024-03-10T17:03:27.007Z,27.00
2024-03-10T17:05:56.420Z,25.67
2024-03-10T17:08:24.702Z,25.60
2024-03-10T17:10:51.400Z,26.65
2024-03-10T17:13:18.820Z,26.02
2024-03-10T17:15:45.306Z,25.88
2024-03-10T17:18:14.115Z,26.45
2024-03-10T17:20:41.976Z,26.45
2024-03-10T17:23:08.855Z,26.43
2024-03-10T17:25:36.241Z,28.23
2024-03-10T17:28:05.489Z,27.17
2024-03-10T17:30:33.376Z,25.00
2024-03-10T17:32:59.950Z,26.92
2024-03-10T17:35:27.731Z,18.17
2024-03-10T17:37:54.324Z,29.77
2024-03-10T17:40:28.208Z,26.60
2024-03-10T17:42:56.366Z,28.20
2024-03-10T17:45:23.470Z,27.73
2024-03-10T17:47:51.259Z,28.27
2024-03-10T17:50:18.060Z,27.48
2024-03-10T17:52:44.651Z,27.25
2024-03-10T17:55:11.172Z,29.73
2024-03-10T17:57:37.623Z,27.65
2024-03-10T18:00:07.002Z,29.80
2024-03-10T18:02:34.055Z,28.60
2024-03-10T18:05:00.864Z,29.98
2024-03-10T18:07:27.744Z,27.88
2024-03-10T18:09:55.097Z,31.13
2024-03-10T18:12:24.521Z,30.37
2024-03-10T18:14:51.692Z,26.10
2024-03-10T18:17:18.672Z,27.63
2024-03-10T18:19:45.202Z,30.25
2024-03-10T18:22:16.859Z,28.05
2024-03-10T18:24:46.106Z,28.00
2024-03-10T18:27:13.053Z,30.30
2024-03-10T18:29:39.908Z,27.20
2024-03-10T18:32:06.801Z,28.05
2024-03-10T18:34:33.834Z,25.05
2024-03-10T18:37:00.307Z,25.57
2024-03-10T18:39:26.725Z,27.48
2024-03-10T18:41:55.762Z,25.20
2024-03-10T18:44:22.254Z,28.40
2024-03-10T18:46:48.925Z,27.65
2024-03-10T18:49:15.444Z,27.73
2024-03-10T18:51:41.940Z,28.67
2024-03-10T18:54:09.647Z,27.15
2024-03-10T18:56:36.142Z,25.98
2024-03-10T18:59:02.787Z,26.55
2024-03-10T19:01:29.350Z,27.20
2024-03-10T19:03:56.018Z,27.83
2024-03-10T19:06:23.804Z,27.58
2024-03-10T19:08:50.557Z,27.23
2024-03-10T19:11:19.096Z,27.83
2024-03-10T19:13:46.170Z,26.17
2024-03-10T19:16:13.662Z,28.05
2024-03-10T19:18:40.130Z,27.30
2024-03-10T19:21:07.193Z,28.13
2024-03-10T19:23:34.383Z,27.52
2024-03-10T19:26:04.668Z,28.13
2024-03-10T19:28:31.537Z,27.33
2024-03-10T19:31:01.097Z,33.38
2024-03-10T19:33:28.178Z,29.02
2024-03-10T19:35:56.231Z,30.88
2024-03-10T19:38:22.937Z,31.30
2024-03-10T19:40:49.740Z,31.77
2024-03-10T19:43:16.786Z,28.40
2024-03-10T19:45:43.622Z,29.40
2024-03-10T19:48:12.274Z,26.50
2024-03-10T19:50:39.068Z,30.80
2024-03-10T19:53:05.862Z,30.92
2024-03-10T19:55:34.317Z,27.42
2024-03-10T19:58:00.823Z,27.70
2024-03-10T20:00:29.244Z,28.35
2024-03-10T20:02:55.971Z,30.10
2024-03-10T20:05:22.534Z,29.13
2024-03-10T20:07:49.779Z,28.55
2024-03-10T20:10:19.482Z,32.08
2024-03-10T20:12:48.409Z,31.40
2024-03-10T20:15:16.186Z,31.25
2024-03-10T20:17:48.033Z,29.70
2024-03-10T20:20:20.796Z,30.40
2024-03-10T20:22:48.615Z,28.45
2024-03-10T20:25:15.352Z,29.05
2024-03-10T20:27:41.982Z,29.40
2024-03-10T20:30:09.811Z,30.98
2024-03-10T20:32:39.918Z,33.38
2024-03-10T20:35:08.198Z,29.35
2024-03-10T20:37:34.688Z,28.67
2024-03-10T20:40:02.064Z,30.08
2024-03-10T20:42:30.021Z,28.65
2024-03-10T20:44:56.912Z,31.42
2024-03-10T20:47:24.254Z,26.60
2024-03-10T20:49:51.170Z,27.85
2024-03-10T20:52:18.322Z,28.77
2024-03-10T20:54:44.955Z,29.38
2024-03-10T20:57:11.869Z,29.50
2024-03-10T20:59:39.675Z,26.33
2024-03-10T21:02:08.279Z,29.80
2024-03-10T21:04:35.688Z,30.00
2024-03-10T21:07:02.717Z,29.15
2024-03-10T21:09:29.460Z,31.73
2024-03-10T21:11:56.533Z,34.08
2024-03-10T21:14:23.211Z,31.27
2024-03-10T21:16:50.224Z,29.80
2024-03-10T21:19:16.712Z,30.38
2024-03-10T21:21:43.274Z,30.38
2024-03-10T21:24:09.794Z,29.85
2024-03-10T21:26:36.366Z,31.17
2024-03-10T21:29:04.415Z,29.08
2024-03-10T21:31:30.918Z,32.85
2024-03-10T21:33:57.469Z,29.88
2024-03-10T21:36:24.538Z,31.27
2024-03-10T21:38:51.713Z,32.22
2024-03-10T21:41:18.836Z,30.83
2024-03-10T21:43:47.042Z,32.05
2024-03-10T21:46:13.576Z,31.80
2024-03-10T21:48:40.816Z,29.70
2024-03-10T21:51:07.369Z,36.53
2024-03-10T21:53:35.903Z,32.38
2024-03-10T21:56:07.067Z,33.03
2024-03-10T21:58:33.578Z,29.58
2024-03-10T22:01:01.000Z,30.13
2024-03-10T22:03:31.429Z,34.05
2024-03-10T22:05:57.956Z,35.53
2024-03-10T22:08:24.457Z,31.40
2024-03-10T22:10:50.971Z,33.78
2024-03-10T22:13:17.998Z,32.40
2024-03-10T22:15:44.483Z,31.50
2024-03-10T22:18:11.396Z,31.83
2024-03-10T22:20:38.179Z,34.90
2024-03-10T22:23:05.662Z,32.38
2024-03-10T22:25:32.185Z,32.50
2024-03-10T22:27:59.003Z,33.67
2024-03-10T22:30:28.669Z,31.90
2024-03-10T22:32:55.370Z,33.85
2024-03-10T22:35:22.229Z,30.58
2024-03-10T22:37:50.699Z,29.98
2024-03-10T22:40:20.396Z,30.52
2024-03-10T22:42:49.502Z,32.60
2024-03-10T22:45:24.457Z,33.80
2024-03-10T22:47:56.813Z,32.53
2024-03-10T22:50:24.014Z,34.22
2024-03-10T22:52:50.734Z,34.95
2024-03-10T22:55:20.464Z,33.75
2024-03-10T22:57:47.537Z,32.63
2024-03-10T23:00:24.648Z,32.20
2024-03-10T23:02:57.055Z,36.03
2024-03-10T23:05:28.173Z,35.42
2024-03-10T23:08:02.076Z,30.75
2024-03-10T23:10:29.693Z,32.28
2024-03-10T23:12:57.852Z,30.50
2024-03-10T23:15:25.098Z,33.15
2024-03-10T23:17:51.890Z,29.95
2024-03-10T23:20:25.291Z,32.53
2024-03-10T23:22:57.221Z,29.33
2024-03-10T23:25:25.780Z,33.75
2024-03-10T23:27:53.783Z,33.75
2024-03-10T23:30:21.327Z,32.55
2024-03-10T23:32:49.880Z,34.53
2024-03-10T23:35:17.330Z,31.50
2024-03-10T23:37:46.798Z,32.20
2024-03-10T23:40:13.675Z,31.52
2024-03-10T23:42:41.480Z,32.47
2024-03-10T23:45:14.160Z,32.75
2024-03-10T23:47:42.418Z,31.65
2024-03-10T23:50:12.262Z,33.67
2024-03-10T23:52:40.343Z,34.35
2024-03-10T23:55:08.118Z,29.08
2024-03-10T23:57:35.107Z,32.97
